Time;durP1;ratioP1;P1;durP2;ratioP2;P2;SDS_P1;SDS_P2;PMS_P1;PMS_P2;Temp;Humidity;BMP_temperature;BMP_pressure;BME280_temperature;BME280_humidity;BME280_pressure;Samples;Min_cycle;Max_cycle;Signal;HPM_P1;HPM_P2
2022/10/24 00:02:43;;;;;;;7.43;3.77;;;14.40;99.90;;;;;;10441576;28;20215;-76
2022/10/24 00:07:43;;;;;;;11.57;3.97;;;14.30;99.90;;;;;;10441544;28;20785;-76
2022/10/24 00:12:44;;;;;;;12.43;3.53;;;14.30;99.90;;;;;;10447807;28;20250;-75
2022/10/24 00:17:45;;;;;;;10.37;4.70;;;14.20;99.90;;;;;;10440658;28;20311;-76
2022/10/24 00:22:45;;;;;;;9.77;4.00;;;14.10;99.90;;;;;;10435828;28;20290;-77
2022/10/24 00:27:46;;;;;;;7.60;4.00;;;14.00;99.90;;;;;;10440067;28;20216;-75
2022/10/24 00:32:46;;;;;;;8.00;4.73;;;14.00;99.90;;;;;;10432387;28;20218;-77
2022/10/24 00:37:47;;;;;;;10.80;3.97;;;14.00;99.90;;;;;;10441174;28;20242;-75
2022/10/24 00:42:48;;;;;;;7.40;3.70;;;13.90;99.90;;;;;;10447256;28;20219;-77
2022/10/24 00:47:49;;;;;;;10.90;4.47;;;13.80;99.90;;;;;;10442367;28;20269;-76
2022/10/24 00:52:49;;;;;;;8.87;4.47;;;13.80;99.90;;;;;;10439551;28;20215;-73
2022/10/24 00:57:53;;;;;;;7.47;4.40;;;13.70;99.90;;;;;;10439667;28;20218;-74
2022/10/24 01:02:54;;;;;;;5.33;4.17;;;13.60;99.90;;;;;;10432106;28;20256;-73
2022/10/24 01:08:23;;;;;;;8.30;4.53;;;13.50;99.90;;;;;;10434424;28;20220;-75
2022/10/24 01:13:54;;;;;;;4.87;3.60;;;13.50;99.90;;;;;;10438870;28;20224;-74
2022/10/24 01:18:55;;;;;;;9.20;4.07;;;13.40;99.90;;;;;;10438859;28;20242;-75
2022/10/24 01:24:26;;;;;;;7.57;4.20;;;13.30;99.90;;;;;;10439012;28;20263;-72
2022/10/24 01:30:04;;;;;;;5.47;3.80;;;13.30;99.90;;;;;;10429525;28;20292;-73
2022/10/24 01:35:29;;;;;;;4.97;3.33;;;13.30;99.90;;;;;;10430448;28;20224;-72
2022/10/24 01:40:36;;;;;;;9.43;3.77;;;13.20;99.90;;;;;;10424552;28;20224;-73
2022/10/24 01:45:40;;;;;;;6.33;4.00;;;13.20;99.90;;;;;;10440022;28;20738;-72
2022/10/24 01:50:45;;;;;;;10.20;4.20;;;13.20;99.90;;;;;;10445897;28;20698;-71
2022/10/24 01:55:47;;;;;;;11.13;3.97;;;13.10;99.90;;;;;;10447253;28;20305;-74
2022/10/24 02:00:51;;;;;;;9.93;4.10;;;13.20;99.90;;;;;;10438629;28;20228;-74
2022/10/24 02:05:56;;;;;;;9.03;3.87;;;13.30;99.90;;;;;;10446284;28;20605;-74
2022/10/24 02:11:01;;;;;;;12.60;4.07;;;13.40;99.90;;;;;;10453644;28;20780;-74
2022/10/24 02:16:03;;;;;;;10.60;4.37;;;13.50;99.90;;;;;;10440618;28;20228;-74
2022/10/24 02:21:24;;;;;;;15.20;4.73;;;13.70;99.90;;;;;;10438808;28;20259;-73
2022/10/24 02:26:39;;;;;;;14.03;3.30;;;13.90;99.90;;;;;;10442387;28;20241;-75
2022/10/24 02:31:45;;;;;;;11.90;3.60;;;14.00;99.90;;;;;;10441635;28;20229;-75
2022/10/24 02:36:48;;;;;;;12.10;3.97;;;14.00;99.90;;;;;;10445049;28;20281;-74
2022/10/24 02:41:53;;;;;;;12.13;3.40;;;14.00;99.90;;;;;;10447285;28;20223;-74
2022/10/24 02:46:57;;;;;;;10.40;3.57;;;14.00;99.90;;;;;;10443194;28;20224;-75
2022/10/24 02:51:59;;;;;;;9.63;3.43;;;14.00;99.90;;;;;;10441674;28;20238;-75
2022/10/24 02:57:01;;;;;;;21.20;3.57;;;14.00;99.90;;;;;;10444763;28;20293;-75
2022/10/24 03:02:01;;;;;;;12.17;3.37;;;14.00;99.90;;;;;;10441977;28;20235;-74
2022/10/24 03:07:02;;;;;;;10.40;3.10;;;13.90;99.90;;;;;;10435899;28;20223;-70
2022/10/24 03:12:03;;;;;;;8.73;3.30;;;13.90;99.90;;;;;;10443913;28;20840;-72
2022/10/24 03:17:04;;;;;;;8.87;3.20;;;13.90;99.90;;;;;;10446174;28;20319;-73
2022/10/24 03:22:07;;;;;;;8.63;3.30;;;14.00;99.90;;;;;;10436816;28;20216;-72
2022/10/24 03:27:08;;;;;;;9.30;3.40;;;14.00;99.90;;;;;;10439370;28;20402;-74
2022/10/24 03:32:08;;;;;;;10.37;3.03;;;14.10;99.90;;;;;;10450364;28;20311;-73
2022/10/24 03:37:09;;;;;;;9.73;3.20;;;14.30;99.90;;;;;;10440693;28;20581;-73
2022/10/24 03:42:10;;;;;;;9.97;3.60;;;14.50;99.90;;;;;;10447131;28;20269;-72
2022/10/24 03:47:11;;;;;;;13.60;3.20;;;14.60;99.90;;;;;;10444552;28;20674;-73
2022/10/24 03:52:12;;;;;;;6.53;2.50;;;14.80;99.90;;;;;;10445772;28;20582;-72
2022/10/24 03:57:12;;;;;;;9.67;3.27;;;14.90;99.90;;;;;;10442095;28;20284;-72
2022/10/24 04:02:13;;;;;;;7.13;2.60;;;14.90;99.90;;;;;;10441203;28;20569;-74
2022/10/24 04:07:13;;;;;;;7.37;2.30;;;14.90;99.90;;;;;;10446001;28;20231;-76
2022/10/24 04:12:14;;;;;;;10.57;2.90;;;15.00;99.90;;;;;;10448482;28;20226;-75
2022/10/24 04:17:15;;;;;;;9.77;3.07;;;15.00;99.90;;;;;;10438163;28;20216;-77
2022/10/24 04:22:21;;;;;;;10.37;3.20;;;15.00;99.90;;;;;;10443311;28;20707;-76
2022/10/24 04:27:22;;;;;;;15.03;3.00;;;14.90;99.90;;;;;;10436219;28;20311;-76
2022/10/24 04:32:23;;;;;;;6.20;2.77;;;14.80;99.90;;;;;;10441264;28;20833;-73
2022/10/24 04:37:23;;;;;;;12.33;3.27;;;14.70;99.90;;;;;;10444285;28;20232;-75
2022/10/24 04:42:24;;;;;;;13.17;2.80;;;14.70;99.90;;;;;;10436811;28;20231;-74
2022/10/24 04:47:25;;;;;;;9.37;3.10;;;14.70;99.90;;;;;;10440747;28;20228;-74
2022/10/24 04:52:25;;;;;;;10.57;2.70;;;14.90;99.90;;;;;;10446809;28;20216;-74
2022/10/24 04:57:26;;;;;;;10.23;2.93;;;15.00;99.90;;;;;;10446601;28;20223;-69
2022/10/24 05:02:27;;;;;;;11.20;2.80;;;15.10;99.90;;;;;;10430643;28;20229;-71
2022/10/24 05:07:27;;;;;;;8.27;3.00;;;15.20;99.90;;;;;;10441101;28;20866;-69
2022/10/24 05:12:28;;;;;;;11.50;3.20;;;15.20;99.90;;;;;;10429168;28;20294;-69
2022/10/24 05:17:28;;;;;;;10.33;3.93;;;15.30;99.90;;;;;;10444825;28;20240;-69
2022/10/24 05:22:29;;;;;;;13.33;3.20;;;15.10;99.90;;;;;;10451892;28;20622;-69
2022/10/24 05:27:30;;;;;;;12.30;3.40;;;15.00;99.90;;;;;;10453148;28;20245;-71
2022/10/24 05:32:30;;;;;;;11.33;3.30;;;15.00;99.90;;;;;;10443002;28;20593;-71
2022/10/24 05:37:31;;;;;;;11.40;3.63;;;15.00;99.90;;;;;;10459034;28;20227;-72
2022/10/24 05:42:32;;;;;;;19.30;3.60;;;15.10;99.90;;;;;;10443299;28;20352;-72
2022/10/24 05:47:32;;;;;;;15.43;2.90;;;15.10;99.90;;;;;;10449456;28;20223;-71
2022/10/24 05:52:35;;;;;;;12.10;3.30;;;15.30;99.90;;;;;;10450976;28;20228;-71
2022/10/24 05:57:36;;;;;;;10.53;3.63;;;15.30;99.90;;;;;;10451430;28;20239;-72
2022/10/24 06:02:38;;;;;;;8.17;3.20;;;15.20;99.90;;;;;;10457953;28;20231;-72
2022/10/24 06:07:40;;;;;;;17.80;3.93;;;15.10;99.90;;;;;;10457053;28;20733;-71
2022/10/24 06:12:41;;;;;;;15.07;3.93;;;15.10;99.90;;;;;;10457904;28;20591;-71
2022/10/24 06:17:42;;;;;;;11.17;3.43;;;15.20;99.90;;;;;;10457388;28;20288;-70
2022/10/24 06:22:45;;;;;;;11.20;3.30;;;15.20;99.90;;;;;;10450784;28;21002;-71
2022/10/24 06:27:47;;;;;;;10.70;3.40;;;15.30;99.90;;;;;;10457072;28;20266;-71
2022/10/24 06:32:48;;;;;;;9.37;3.30;;;15.40;99.90;;;;;;10446934;28;20216;-72
2022/10/24 06:37:48;;;;;;;13.67;3.37;;;15.50;99.90;;;;;;10447237;28;20239;-72
2022/10/24 06:42:49;;;;;;;14.77;3.83;;;15.70;99.90;;;;;;10443902;28;20230;-73
2022/10/24 06:47:50;;;;;;;17.23;3.63;;;15.80;99.90;;;;;;10438818;28;20234;-73
2022/10/24 06:52:51;;;;;;;12.40;3.60;;;15.90;99.90;;;;;;10439130;28;20215;-73
2022/10/24 06:57:53;;;;;;;10.67;3.70;;;16.00;99.90;;;;;;10448006;28;20232;-71
2022/10/24 07:02:53;;;;;;;13.30;3.47;;;16.10;99.90;;;;;;10448589;28;20220;-72
2022/10/24 07:07:55;;;;;;;17.90;3.60;;;16.20;99.90;;;;;;10444874;28;20310;-73
2022/10/24 07:12:55;;;;;;;17.00;3.30;;;16.30;99.90;;;;;;10448288;28;20246;-72
2022/10/24 07:17:56;;;;;;;12.00;4.03;;;16.40;99.90;;;;;;10442036;28;20239;-73
2022/10/24 07:22:57;;;;;;;10.90;3.40;;;16.50;99.90;;;;;;10442231;28;20216;-73
2022/10/24 07:27:57;;;;;;;16.67;4.80;;;16.60;99.90;;;;;;10436363;28;20255;-73
2022/10/24 07:32:58;;;;;;;14.10;3.30;;;16.70;99.90;;;;;;10439448;28;20224;-71
2022/10/24 07:37:59;;;;;;;15.23;3.67;;;16.80;99.90;;;;;;10439963;28;20259;-71
2022/10/24 07:43:00;;;;;;;13.13;3.90;;;16.90;99.90;;;;;;10441576;28;20227;-71
2022/10/24 07:48:04;;;;;;;21.90;3.97;;;16.90;99.90;;;;;;10448527;28;20223;-71
2022/10/24 07:53:05;;;;;;;16.97;3.80;;;17.00;99.90;;;;;;10447795;28;20235;-71
2022/10/24 07:58:06;;;;;;;14.03;3.67;;;17.10;99.90;;;;;;10443130;28;20621;-71
2022/10/24 08:03:06;;;;;;;10.57;3.57;;;17.20;99.90;;;;;;10440595;28;20220;-70
2022/10/24 08:08:07;;;;;;;12.50;3.50;;;17.40;99.90;;;;;;10444707;28;20227;-71
2022/10/24 08:13:08;;;;;;;13.47;3.57;;;17.60;99.90;;;;;;10447144;28;20471;-71
2022/10/24 08:18:08;;;;;;;12.03;3.80;;;17.70;99.90;;;;;;10446300;28;20228;-71
2022/10/24 08:23:09;;;;;;;15.13;4.10;;;18.00;99.90;;;;;;10447529;28;20225;-71
2022/10/24 08:28:10;;;;;;;11.03;3.67;;;18.30;99.90;;;;;;10436716;28;20216;-70
2022/10/24 08:33:11;;;;;;;11.33;3.50;;;18.90;99.90;;;;;;10445087;28;20221;-72
2022/10/24 08:38:12;;;;;;;12.17;3.60;;;19.20;99.90;;;;;;10443509;28;20219;-72
2022/10/24 08:43:12;;;;;;;11.47;3.57;;;19.10;99.90;;;;;;10442528;28;20216;-71
2022/10/24 08:48:18;;;;;;;11.80;3.47;;;18.80;99.90;;;;;;10441558;28;20257;-73
2022/10/24 08:53:26;;;;;;;8.93;3.47;;;18.60;99.90;;;;;;10445341;28;20254;-73
2022/10/24 08:58:43;;;;;;;12.80;2.87;;;18.50;99.90;;;;;;10438190;28;20273;-72
2022/10/24 09:03:47;;;;;;;8.50;3.30;;;18.50;99.90;;;;;;10445496;28;20219;-73
2022/10/24 09:09:17;;;;;;;13.03;2.97;;;19.70;99.90;;;;;;10444386;28;20229;-72
2022/10/24 09:14:25;;;;;;;12.77;2.87;;;23.20;99.90;;;;;;10440530;28;20212;-73
2022/10/24 09:19:28;;;;;;;10.87;3.10;;;26.30;99.90;;;;;;10436014;28;20303;-73
2022/10/24 09:24:57;;;;;;;10.23;3.33;;;28.80;98.70;;;;;;10439372;28;20235;-72
2022/10/24 09:29:59;;;;;;;12.57;3.67;;;31.10;90.60;;;;;;10429452;28;20794;-77
2022/10/24 09:35:03;;;;;;;12.27;2.90;;;33.10;70.40;;;;;;10433247;28;20227;-78
2022/10/24 09:40:16;;;;;;;11.70;3.00;;;31.10;70.50;;;;;;10426195;28;20230;-78
2022/10/24 09:45:26;;;;;;;8.97;3.00;;;29.80;74.00;;;;;;10390018;28;20712;-77
2022/10/24 09:50:28;;;;;;;12.33;3.63;;;29.20;76.00;;;;;;10419559;28;20585;-78
2022/10/24 09:55:30;;;;;;;9.13;2.70;;;28.40;79.00;;;;;;10388561;28;20256;-77
2022/10/24 10:00:35;;;;;;;11.13;2.83;;;28.60;78.20;;;;;;10387359;28;20221;-77
2022/10/24 10:05:47;;;;;;;10.20;3.00;;;28.70;78.40;;;;;;10390775;28;20230;-77
2022/10/24 10:11:06;;;;;;;11.03;3.37;;;28.30;79.50;;;;;;10401995;28;20220;-77
2022/10/24 10:16:26;;;;;;;13.50;3.00;;;28.80;77.20;;;;;;10399597;28;20482;-77
2022/10/24 10:21:47;;;;;;;10.40;2.80;;;28.30;78.10;;;;;;10386875;28;20354;-77
2022/10/24 10:26:47;;;;;;;12.00;3.30;;;29.00;77.20;;;;;;10390308;28;20233;-77
2022/10/24 10:31:57;;;;;;;9.63;2.77;;;29.30;75.10;;;;;;10390359;28;20300;-77
2022/10/24 10:37:12;;;;;;;10.73;2.83;;;27.40;81.30;;;;;;10404786;28;20244;-77
2022/10/24 10:42:33;;;;;;;9.13;3.37;;;26.50;85.80;;;;;;10388664;28;20232;-77
2022/10/24 10:48:01;;;;;;;16.67;3.20;;;25.30;90.00;;;;;;10409793;28;20247;-77
2022/10/24 10:53:33;;;;;;;9.27;3.20;;;24.70;92.20;;;;;;10423993;28;20600;-77
2022/10/24 10:58:46;;;;;;;7.67;2.40;;;26.00;90.90;;;;;;10416609;28;20224;-77
2022/10/24 11:04:04;;;;;;;8.43;2.77;;;30.90;74.60;;;;;;10426207;28;20232;-76
2022/10/24 11:09:22;;;;;;;11.97;2.80;;;32.00;64.50;;;;;;10449779;28;20217;-76
2022/10/24 11:14:42;;;;;;;8.93;2.47;;;28.10;75.50;;;;;;10434479;28;20273;-77
2022/10/24 11:19:53;;;;;;;10.80;3.00;;;25.20;86.50;;;;;;10437709;28;20223;-77
2022/10/24 11:25:26;;;;;;;6.10;2.43;;;24.20;91.10;;;;;;10434643;28;20234;-77
2022/10/24 11:30:42;;;;;;;5.87;2.63;;;23.60;93.20;;;;;;10433918;28;20241;-77
2022/10/24 11:36:03;;;;;;;12.00;3.17;;;23.20;94.10;;;;;;10400372;28;20236;-76
2022/10/24 11:41:26;;;;;;;6.90;2.77;;;23.10;95.40;;;;;;10431190;28;20759;-77
2022/10/24 11:46:43;;;;;;;9.13;2.80;;;23.10;96.20;;;;;;10398672;28;20726;-77
2022/10/24 11:51:54;;;;;;;11.57;2.77;;;23.00;97.40;;;;;;10407799;28;20230;-76
2022/10/24 11:57:07;;;;;;;12.33;3.00;;;22.80;98.50;;;;;;10402855;28;20237;-77
2022/10/24 12:02:46;;;;;;;9.27;3.37;;;22.50;99.70;;;;;;10390906;28;20222;-77
2022/10/24 12:08:13;;;;;;;9.83;2.50;;;22.20;99.90;;;;;;10403824;28;20258;-77
2022/10/24 12:13:45;;;;;;;8.20;2.50;;;22.30;99.90;;;;;;10425813;28;20233;-76
2022/10/24 12:18:56;;;;;;;7.60;2.70;;;22.60;99.90;;;;;;10441463;28;20262;-77
2022/10/24 12:23:59;;;;;;;5.23;2.30;;;22.60;99.90;;;;;;10442258;28;20711;-77
2022/10/24 12:29:19;;;;;;;6.00;2.40;;;22.40;99.90;;;;;;10440821;28;20222;-77
2022/10/24 12:34:21;;;;;;;11.03;2.67;;;22.30;99.90;;;;;;10446893;28;20226;-77
2022/10/24 12:39:29;;;;;;;11.23;3.37;;;22.10;99.90;;;;;;10443923;28;20235;-77
2022/10/24 12:44:33;;;;;;;9.40;3.07;;;21.90;99.90;;;;;;10438874;28;20238;-79
2022/10/24 12:49:33;;;;;;;10.37;2.87;;;21.80;99.90;;;;;;10446436;28;20251;-77
2022/10/24 12:54:43;;;;;;;10.33;2.77;;;21.80;99.90;;;;;;10437392;28;20772;-77
2022/10/24 12:59:48;;;;;;;7.93;2.70;;;21.80;99.90;;;;;;10422124;28;20356;-76
2022/10/24 13:05:13;;;;;;;9.57;2.80;;;21.60;99.90;;;;;;10403253;28;20971;-78
2022/10/24 13:10:35;;;;;;;9.13;2.77;;;21.50;99.90;;;;;;10444127;28;20222;-77
2022/10/24 13:15:54;;;;;;;11.10;3.37;;;21.50;99.90;;;;;;10436616;28;20761;-78
2022/10/24 13:21:25;;;;;;;10.23;2.80;;;21.60;99.90;;;;;;10434601;28;20219;-79
2022/10/24 13:26:39;;;;;;;7.27;3.40;;;22.00;99.90;;;;;;10444168;28;20229;-77
2022/10/24 13:31:43;;;;;;;10.23;2.90;;;22.10;99.90;;;;;;10432582;28;20570;-77
2022/10/24 13:36:44;;;;;;;10.00;2.70;;;21.90;99.90;;;;;;10439772;28;20883;-76
2022/10/24 13:41:55;;;;;;;8.33;2.80;;;21.70;99.90;;;;;;10450388;28;20229;-77
2022/10/24 13:47:16;;;;;;;6.47;2.63;;;21.60;99.90;;;;;;10450867;28;20715;-77
2022/10/24 13:52:26;;;;;;;4.70;2.33;;;21.50;99.90;;;;;;10452292;28;20669;-76
2022/10/24 13:57:36;;;;;;;5.93;1.90;;;21.30;99.90;;;;;;10452839;28;20279;-77
2022/10/24 14:02:40;;;;;;;7.77;2.23;;;21.20;99.90;;;;;;10432798;28;20246;-77
2022/10/24 14:07:40;;;;;;;7.37;1.90;;;21.10;99.90;;;;;;10451219;28;20245;-78
2022/10/24 14:12:43;;;;;;;6.70;2.30;;;21.00;99.90;;;;;;10448635;28;20246;-75
2022/10/24 14:18:00;;;;;;;8.10;1.90;;;20.90;99.90;;;;;;10448777;28;20239;-76
2022/10/24 14:23:01;;;;;;;5.23;1.90;;;20.80;99.90;;;;;;10457266;28;20271;-75
2022/10/24 14:28:16;;;;;;;6.23;2.00;;;20.70;99.90;;;;;;10453357;28;20257;-77
2022/10/24 14:33:26;;;;;;;7.40;2.10;;;20.60;99.90;;;;;;10450192;28;20611;-76
2022/10/24 14:38:27;;;;;;;5.47;1.70;;;20.60;99.90;;;;;;10444192;28;20312;-76
2022/10/24 14:43:29;;;;;;;4.53;1.80;;;20.60;99.90;;;;;;10449094;28;20728;-74
2022/10/24 14:48:30;;;;;;;5.90;1.70;;;20.80;99.90;;;;;;10441159;28;20222;-75
2022/10/24 14:53:31;;;;;;;10.03;2.20;;;21.10;99.90;;;;;;10443662;28;20592;-73
2022/10/24 14:58:34;;;;;;;4.03;1.53;;;21.20;99.90;;;;;;10435133;28;20231;-73
2022/10/24 15:03:50;;;;;;;8.00;1.70;;;21.00;99.90;;;;;;10435482;28;20341;-74
2022/10/24 15:09:14;;;;;;;3.97;1.53;;;20.70;99.90;;;;;;10441516;28;20224;-74
2022/10/24 15:14:52;;;;;;;5.60;1.77;;;20.30;99.90;;;;;;10445672;28;20244;-74
2022/10/24 15:19:59;;;;;;;6.20;1.87;;;19.90;99.90;;;;;;10392651;28;20230;-74
2022/10/24 15:25:15;;;;;;;4.90;1.40;;;19.80;99.90;;;;;;10434548;28;20224;-74
2022/10/24 15:30:19;;;;;;;4.87;1.23;;;19.70;99.90;;;;;;10436683;28;20358;-74
2022/10/24 15:35:20;;;;;;;6.50;1.37;;;19.70;99.90;;;;;;10393245;28;20823;-74
2022/10/24 15:40:33;;;;;;;4.67;1.20;;;19.60;99.90;;;;;;10408615;28;20240;-73
2022/10/24 15:45:33;;;;;;;4.27;1.40;;;19.50;99.90;;;;;;10369278;28;20320;-75
2022/10/24 15:50:34;;;;;;;3.93;1.40;;;19.40;99.90;;;;;;10401472;28;20270;-72
2022/10/24 15:55:35;;;;;;;3.90;1.13;;;19.30;99.90;;;;;;10391963;28;20217;-74
2022/10/24 16:00:36;;;;;;;4.60;1.60;;;19.20;99.90;;;;;;10403208;28;20832;-76
2022/10/24 16:05:39;;;;;;;4.00;1.30;;;19.00;99.90;;;;;;10422094;28;20635;-76
2022/10/24 16:10:42;;;;;;;6.33;1.37;;;18.90;99.90;;;;;;10416560;28;20254;-75
2022/10/24 16:15:43;;;;;;;3.67;1.13;;;18.80;99.90;;;;;;10433103;28;20216;-75
2022/10/24 16:20:44;;;;;;;2.93;1.40;;;18.70;99.90;;;;;;10444576;28;20325;-75
2022/10/24 16:25:45;;;;;;;4.20;1.37;;;18.70;99.90;;;;;;10445102;28;20323;-76
2022/10/24 16:30:45;;;;;;;3.83;1.43;;;18.50;99.90;;;;;;10442777;28;20197;-76
2022/10/24 16:35:47;;;;;;;4.90;1.67;;;18.40;99.90;;;;;;10438015;28;20224;-73
2022/10/24 16:40:48;;;;;;;3.50;1.43;;;18.30;99.90;;;;;;10444009;28;20208;-74
2022/10/24 16:46:00;;;;;;;2.87;1.17;;;18.10;99.90;;;;;;10440388;28;20226;-74
2022/10/24 16:51:00;;;;;;;4.53;1.63;;;17.90;99.90;;;;;;10443808;28;20274;-74
2022/10/24 16:56:01;;;;;;;4.77;2.47;;;17.80;99.90;;;;;;10444291;28;20234;-75
2022/10/24 17:01:11;;;;;;;4.63;1.50;;;17.60;99.90;;;;;;10441512;28;20230;-75
2022/10/24 17:06:13;;;;;;;3.87;1.53;;;17.40;99.90;;;;;;10441486;28;20277;-76
2022/10/24 17:11:13;;;;;;;5.70;1.30;;;17.30;99.90;;;;;;10442442;28;20698;-74
2022/10/24 17:16:14;;;;;;;4.30;1.40;;;17.20;99.90;;;;;;10442192;28;20224;-74
2022/10/24 17:21:16;;;;;;;4.60;1.53;;;17.10;99.90;;;;;;10440038;28;20227;-77
2022/10/24 17:26:17;;;;;;;5.03;1.60;;;16.90;99.90;;;;;;10459438;28;20235;-75
2022/10/24 17:31:18;;;;;;;4.30;1.40;;;16.80;99.90;;;;;;10441723;28;20246;-73
2022/10/24 17:36:24;;;;;;;10.73;1.93;;;16.70;99.90;;;;;;10443319;28;20232;-75
2022/10/24 17:41:29;;;;;;;5.30;1.87;;;16.60;99.90;;;;;;10442133;28;20699;-73
2022/10/24 17:46:32;;;;;;;3.87;1.53;;;16.40;99.90;;;;;;10437975;28;20593;-73
2022/10/24 17:51:36;;;;;;;5.60;1.60;;;16.40;99.90;;;;;;10442125;28;20270;-73
2022/10/24 17:56:36;;;;;;;4.73;1.77;;;16.30;99.90;;;;;;10442486;28;20224;-74
2022/10/24 18:01:37;;;;;;;3.73;1.40;;;16.20;99.90;;;;;;10440288;28;20265;-73
2022/10/24 18:06:38;;;;;;;3.57;1.80;;;16.10;99.90;;;;;;10441038;28;20224;-73
2022/10/24 18:11:39;;;;;;;4.20;1.60;;;15.90;99.90;;;;;;10432906;28;20304;-75
2022/10/24 18:16:39;;;;;;;3.63;1.60;;;15.70;99.90;;;;;;10422531;28;20234;-76
2022/10/24 18:21:40;;;;;;;4.27;1.60;;;15.70;99.90;;;;;;10414018;28;20217;-77
2022/10/24 18:26:41;;;;;;;4.67;1.87;;;15.60;99.90;;;;;;10430218;28;20219;-76
2022/10/24 18:31:41;;;;;;;7.87;2.50;;;15.70;99.90;;;;;;10449273;28;20277;-75
2022/10/24 18:36:42;;;;;;;10.23;3.33;;;15.70;99.90;;;;;;10447350;28;20649;-75
2022/10/24 18:42:04;;;;;;;5.83;2.97;;;15.70;99.90;;;;;;10449355;28;20243;-75
2022/10/24 18:47:14;;;;;;;5.40;2.97;;;15.70;99.90;;;;;;10449102;28;20693;-75
2022/10/24 18:52:16;;;;;;;6.63;3.10;;;15.80;99.90;;;;;;10445934;28;20215;-75
2022/10/24 18:57:25;;;;;;;7.70;3.20;;;15.90;99.90;;;;;;10446153;28;20228;-74
2022/10/24 19:02:35;;;;;;;10.47;3.47;;;15.90;99.90;;;;;;10445066;28;20227;-75
2022/10/24 19:07:35;;;;;;;7.93;3.40;;;15.90;99.90;;;;;;10445879;28;20216;-74
2022/10/24 19:12:36;;;;;;;7.03;3.20;;;15.90;99.90;;;;;;10446984;28;20220;-74
2022/10/24 19:17:37;;;;;;;9.93;3.20;;;15.90;99.90;;;;;;10446497;28;20293;-77
2022/10/24 19:22:37;;;;;;;6.70;3.10;;;15.80;99.90;;;;;;10450202;28;20224;-77
2022/10/24 19:27:39;;;;;;;8.27;3.03;;;15.80;99.90;;;;;;10448161;28;20212;-79
2022/10/24 19:32:39;;;;;;;10.27;3.73;;;15.70;99.90;;;;;;10429947;28;20246;-77
2022/10/24 19:37:40;;;;;;;6.87;3.13;;;15.60;99.90;;;;;;10445855;28;20231;-77
2022/10/24 19:42:41;;;;;;;13.47;3.20;;;15.60;99.90;;;;;;10439477;28;20892;-77
2022/10/24 19:47:41;;;;;;;8.53;3.33;;;15.60;99.90;;;;;;10444963;28;20576;-77
2022/10/24 19:52:42;;;;;;;11.70;4.53;;;15.60;99.90;;;;;;10430264;28;20679;-72
2022/10/24 19:57:43;;;;;;;13.00;4.17;;;15.50;99.90;;;;;;10431304;28;20306;-73
2022/10/24 20:02:43;;;;;;;10.50;4.07;;;15.60;99.90;;;;;;10433564;28;20219;-70
2022/10/24 20:07:44;;;;;;;8.53;4.07;;;15.60;99.90;;;;;;10430928;28;20232;-71
2022/10/24 20:12:46;;;;;;;9.53;4.13;;;15.60;99.90;;;;;;10433157;28;20552;-80
2022/10/24 20:17:46;;;;;;;9.07;3.40;;;15.60;99.90;;;;;;10426358;28;20319;-77
2022/10/24 20:22:47;;;;;;;6.03;3.60;;;15.60;99.90;;;;;;10424610;28;20784;-80
2022/10/24 20:27:48;;;;;;;4.13;2.53;;;15.60;99.90;;;;;;10446328;28;20216;-79
2022/10/24 20:32:49;;;;;;;7.10;3.50;;;15.50;99.90;;;;;;10444883;28;20457;-81
2022/10/24 20:37:50;;;;;;;8.00;3.13;;;15.40;99.90;;;;;;10450459;28;20229;-77
2022/10/24 20:42:51;;;;;;;6.70;3.00;;;15.40;99.90;;;;;;10449719;28;20220;-81
2022/10/24 20:47:51;;;;;;;4.07;2.40;;;15.30;99.90;;;;;;10441803;28;20227;-76
2022/10/24 20:52:52;;;;;;;8.30;2.90;;;15.30;99.90;;;;;;10445524;28;20235;-78
2022/10/24 20:57:53;;;;;;;10.63;2.50;;;15.20;99.90;;;;;;10413790;28;20334;-79
2022/10/24 21:02:53;;;;;;;8.30;3.10;;;15.10;99.90;;;;;;10389184;28;20790;-77
2022/10/24 21:07:54;;;;;;;4.97;2.57;;;15.00;99.90;;;;;;10399748;28;20223;-84
2022/10/24 21:12:55;;;;;;;6.23;2.60;;;15.00;99.90;;;;;;10391767;28;20270;-82
2022/10/24 21:17:56;;;;;;;7.70;2.57;;;14.90;99.90;;;;;;10390911;28;20270;-75
2022/10/24 21:22:56;;;;;;;5.67;2.27;;;14.80;99.90;;;;;;10389213;28;20221;-73
2022/10/24 21:27:57;;;;;;;7.50;2.63;;;14.70;99.90;;;;;;10398805;28;20225;-76
2022/10/24 21:32:59;;;;;;;4.93;2.03;;;14.70;99.90;;;;;;10418545;28;20220;-79
2022/10/24 21:37:59;;;;;;;3.50;1.67;;;14.50;99.90;;;;;;10386172;28;20657;-81
2022/10/24 21:43:00;;;;;;;5.07;2.07;;;14.50;99.90;;;;;;10382265;28;20271;-80
2022/10/24 21:48:01;;;;;;;5.07;1.57;;;14.40;99.90;;;;;;10396088;28;20223;-81
2022/10/24 21:53:02;;;;;;;4.50;1.60;;;14.40;99.90;;;;;;10391905;28;20229;-78
2022/10/24 21:58:03;;;;;;;5.47;1.50;;;14.40;99.90;;;;;;10395879;28;20307;-82
2022/10/24 22:03:04;;;;;;;11.30;2.33;;;14.30;99.90;;;;;;10396018;28;20216;-78
2022/10/24 22:08:04;;;;;;;5.43;1.63;;;14.30;99.90;;;;;;10409044;28;20589;-78
2022/10/24 22:13:06;;;;;;;6.37;2.00;;;14.30;99.90;;;;;;10392000;28;20221;-77
2022/10/24 22:18:06;;;;;;;5.27;1.40;;;14.20;99.90;;;;;;10400845;28;20725;-76
2022/10/24 22:23:07;;;;;;;3.67;1.70;;;14.10;99.90;;;;;;10391110;28;20220;-77
2022/10/24 22:28:08;;;;;;;5.70;1.67;;;14.10;99.90;;;;;;10401003;28;20783;-77
2022/10/24 22:33:26;;;;;;;4.70;1.27;;;14.00;99.90;;;;;;10402495;28;20704;-78
2022/10/24 22:38:27;;;;;;;4.70;1.53;;;14.00;99.90;;;;;;10398341;28;20231;-75
2022/10/24 22:43:28;;;;;;;3.13;1.43;;;14.00;99.90;;;;;;10405424;28;20226;-76
2022/10/24 22:48:31;;;;;;;5.23;1.30;;;13.90;99.90;;;;;;10389396;28;20220;-77
2022/10/24 22:53:32;;;;;;;5.40;1.73;;;13.90;99.90;;;;;;10404243;28;20393;-78
2022/10/24 22:58:33;;;;;;;3.67;1.63;;;13.90;99.90;;;;;;10394525;28;20352;-75
2022/10/24 23:03:49;;;;;;;5.70;2.10;;;13.90;99.90;;;;;;10401835;28;20228;-76
2022/10/24 23:08:49;;;;;;;4.00;1.20;;;13.90;99.90;;;;;;10394544;28;20250;-79
2022/10/24 23:13:51;;;;;;;3.77;1.60;;;13.80;99.90;;;;;;10391856;28;20255;-78
2022/10/24 23:18:53;;;;;;;4.10;1.57;;;13.80;99.90;;;;;;10389713;28;20255;-77
2022/10/24 23:23:54;;;;;;;6.17;1.60;;;13.80;99.90;;;;;;10432305;28;20301;-78
2022/10/24 23:29:28;;;;;;;4.07;1.30;;;13.70;99.90;;;;;;10414861;28;20213;-77
2022/10/24 23:34:29;;;;;;;2.93;1.33;;;13.60;99.90;;;;;;10394601;28;20300;-77
2022/10/24 23:39:34;;;;;;;1.83;1.20;;;13.60;99.90;;;;;;10438797;28;20241;-77
2022/10/24 23:44:34;;;;;;;4.07;1.60;;;13.50;99.90;;;;;;10393136;28;20228;-78
2022/10/24 23:49:43;;;;;;;3.63;1.43;;;13.50;99.90;;;;;;10437768;28;20263;-78
2022/10/24 23:54:44;;;;;;;7.10;1.53;;;13.50;99.90;;;;;;10392876;28;20236;-77
2022/10/24 23:59:45;;;;;;;4.77;1.47;;;13.50;99.90;;;;;;10402547;28;20586;-76
